Time;durP1;ratioP1;P1;durP2;ratioP2;P2;SDS_P1;SDS_P2;PMS_P1;PMS_P2;Temp;Humidity;BMP_temperature;BMP_pressure;BME280_temperature;BME280_humidity;BME280_pressure;Samples;Min_cycle;Max_cycle;Signal;HPM_P1;HPM_P2
2023/08/03 00:00:41;;;;;;;4.33;1.67;;;;;;;16.99;100.00;155728.25;5045258;28;20460;-85
2023/08/03 00:03:09;;;;;;;2.97;1.40;;;;;;;16.96;100.00;155719.13;5046037;28;20973;-85
2023/08/03 00:05:36;;;;;;;4.27;1.93;;;;;;;16.99;100.00;155728.25;5032806;28;20686;-86
2023/08/03 00:08:02;;;;;;;5.63;1.77;;;;;;;16.95;100.00;155717.81;5068854;28;20442;-85
2023/08/03 00:10:29;;;;;;;5.50;1.57;;;;;;;16.97;100.00;155721.75;5056164;28;20455;-86
2023/08/03 00:12:55;;;;;;;6.50;2.40;;;;;;;16.99;100.00;155728.25;5029066;28;20443;-85
2023/08/03 00:15:22;;;;;;;2.70;1.60;;;;;;;16.97;100.00;155721.75;5045963;28;20459;-85
2023/08/03 00:17:49;;;;;;;3.17;1.60;;;;;;;16.99;100.00;155726.94;5049916;28;20451;-86
2023/08/03 00:20:35;;;;;;;2.93;1.80;;;;;;;16.98;100.00;155724.31;5019016;28;20474;-86
2023/08/03 00:23:01;;;;;;;4.53;1.73;;;;;;;16.97;100.00;155723.00;5041283;28;20463;-86
2023/08/03 00:25:30;;;;;;;8.17;1.90;;;;;;;16.96;100.00;155720.44;5054340;28;20454;-86
2023/08/03 00:27:57;;;;;;;2.27;1.73;;;;;;;16.96;100.00;155719.13;5058401;28;20452;-85
2023/08/03 00:30:25;;;;;;;4.63;2.10;;;;;;;16.98;100.00;155724.31;5062091;28;20778;-85
2023/08/03 00:32:51;;;;;;;2.97;1.57;;;;;;;17.01;100.00;155732.13;5063168;28;20482;-85
2023/08/03 00:35:18;;;;;;;5.40;1.73;;;;;;;17.03;100.00;155738.63;5054387;28;20447;-85
2023/08/03 00:37:46;;;;;;;3.60;1.40;;;;;;;17.06;100.00;155745.13;5047855;28;20957;-85
2023/08/03 00:40:13;;;;;;;4.00;1.97;;;;;;;17.05;100.00;155743.81;5056607;28;20576;-85
2023/08/03 00:42:39;;;;;;;5.57;2.17;;;;;;;17.03;100.00;155738.63;5056915;28;20466;-85
2023/08/03 00:45:07;;;;;;;3.67;2.00;;;;;;;16.98;100.00;155724.31;5064282;28;20450;-85
2023/08/03 00:47:35;;;;;;;5.77;2.00;;;;;;;16.91;100.00;155707.44;5017441;28;20825;-85
2023/08/03 00:50:02;;;;;;;2.97;1.43;;;;;;;16.93;100.00;155712.63;5019776;28;20456;-85
2023/08/03 00:52:29;;;;;;;6.63;2.00;;;;;;;16.92;100.00;155710.00;5019468;28;20426;-85
2023/08/03 00:54:57;;;;;;;4.93;2.17;;;;;;;16.93;100.00;155712.63;5041589;28;20460;-85
2023/08/03 00:57:24;;;;;;;3.00;1.57;;;;;;;16.89;100.00;155702.19;5038871;28;20446;-86
2023/08/03 00:59:50;;;;;;;2.73;2.07;;;;;;;16.87;100.00;155697.00;5028944;28;20487;-85
2023/08/03 01:02:17;;;;;;;3.57;1.50;;;;;;;16.86;100.00;155694.41;5021011;28;20566;-85
2023/08/03 01:04:43;;;;;;;3.80;1.60;;;;;;;16.93;100.00;155712.63;5043782;28;20874;-85
2023/08/03 01:07:12;;;;;;;4.53;2.13;;;;;;;16.90;100.00;155704.81;5053065;28;20454;-85
2023/08/03 01:09:39;;;;;;;4.53;2.10;;;;;;;16.84;100.00;155687.88;5024547;28;20562;-85
2023/08/03 01:12:08;;;;;;;5.80;1.93;;;;;;;16.83;100.00;155686.59;5050343;28;20450;-85
2023/08/03 01:14:35;;;;;;;7.40;2.60;;;;;;;16.84;100.00;155687.88;5061398;28;20454;-86
2023/08/03 01:17:02;;;;;;;4.50;2.30;;;;;;;16.86;100.00;155694.41;5062831;28;20437;-86
2023/08/03 01:19:28;;;;;;;6.40;2.17;;;;;;;16.81;100.00;155681.38;5055286;28;20537;-86
2023/08/03 01:21:57;;;;;;;5.00;1.97;;;;;;;16.77;100.00;155669.66;5065054;28;20446;-85
2023/08/03 01:24:25;;;;;;;4.87;2.17;;;;;;;16.74;100.00;155661.88;5055273;28;20483;-85
2023/08/03 01:26:52;;;;;;;5.90;2.50;;;;;;;16.72;100.00;155657.97;5044161;28;20463;-86
2023/08/03 01:29:19;;;;;;;4.47;2.13;;;;;;;16.71;100.00;155655.34;5033015;28;20552;-86
2023/08/03 01:31:46;;;;;;;4.53;1.97;;;;;;;16.69;100.00;155648.84;5066727;28;20477;-85
2023/08/03 01:34:14;;;;;;;4.63;1.90;;;;;;;16.70;100.00;155651.47;5041687;28;20454;-86
2023/08/03 01:36:41;;;;;;;3.67;2.00;;;;;;;16.68;100.00;155646.28;5043549;28;20997;-85
2023/08/03 01:39:09;;;;;;;4.80;2.13;;;;;;;16.64;100.00;155637.16;5035995;28;21054;-85
2023/08/03 01:41:41;;;;;;;3.80;2.00;;;;;;;16.66;100.00;155641.03;5027079;28;20428;-85
2023/08/03 01:44:21;;;;;;;6.43;1.83;;;;;;;16.68;100.00;155647.53;5027361;28;20454;-86
2023/08/03 01:46:47;;;;;;;6.23;2.07;;;;;;;16.71;100.00;155655.34;5062847;28;20460;-86
2023/08/03 01:49:14;;;;;;;5.33;1.83;;;;;;;16.71;100.00;155655.34;5021936;28;20451;-85
2023/08/03 01:51:40;;;;;;;7.53;1.83;;;;;;;16.65;100.00;155638.47;5045991;28;20452;-84
2023/08/03 01:54:07;;;;;;;4.60;1.80;;;;;;;16.63;100.00;155634.53;5013238;28;20463;-86
2023/08/03 01:56:34;;;;;;;3.47;1.40;;;;;;;16.60;100.00;155625.47;5034547;28;20462;-85
2023/08/03 01:59:02;;;;;;;5.67;1.40;;;;;;;16.59;100.00;155622.84;5035700;28;20478;-85
2023/08/03 02:01:28;;;;;;;3.27;1.60;;;;;;;16.59;100.00;155622.84;5021861;28;20454;-85
2023/08/03 02:03:55;;;;;;;3.87;2.07;;;;;;;16.55;100.00;155613.72;5054904;28;20450;-85
2023/08/03 02:06:22;;;;;;;3.00;1.60;;;;;;;16.52;100.00;155605.88;5040033;28;20540;-85
2023/08/03 02:08:48;;;;;;;3.87;1.50;;;;;;;16.50;100.00;155599.38;5030063;28;20574;-85
2023/08/03 02:11:15;;;;;;;4.00;1.30;;;;;;;16.48;100.00;155595.47;5032275;28;20462;-85
2023/08/03 02:13:42;;;;;;;3.70;1.50;;;;;;;16.43;99.56;155582.47;5024548;28;20452;-85
2023/08/03 02:16:10;;;;;;;5.30;2.23;;;;;;;16.44;100.00;155586.38;5055038;28;20442;-86
2023/08/03 02:18:38;;;;;;;4.17;1.67;;;;;;;16.42;99.77;155581.16;5042560;28;20637;-85
2023/08/03 02:21:05;;;;;;;2.30;1.20;;;;;;;16.42;98.49;155581.16;5026196;28;20502;-85
2023/08/03 02:23:32;;;;;;;3.43;1.63;;;;;;;16.46;100.00;155590.28;5046859;28;20821;-86
2023/08/03 02:25:59;;;;;;;3.60;1.50;;;;;;;16.40;100.00;155574.66;5041420;28;20441;-86
2023/08/03 02:28:25;;;;;;;6.47;2.40;;;;;;;16.39;100.00;155572.06;5049618;28;20478;-86
2023/08/03 02:30:52;;;;;;;2.47;1.47;;;;;;;16.37;100.00;155568.16;5059930;28;20913;-86
2023/08/03 02:33:20;;;;;;;3.50;1.63;;;;;;;16.33;100.00;155557.78;5044141;28;20533;-86
2023/08/03 02:35:48;;;;;;;2.47;1.50;;;;;;;16.32;100.00;155553.84;5014910;28;20511;-86
2023/08/03 02:38:14;;;;;;;4.90;1.53;;;;;;;16.31;100.00;155551.25;5043692;28;20804;-86
2023/08/03 02:40:41;;;;;;;3.77;1.40;;;;;;;16.27;100.00;155542.16;5029662;28;20498;-86
2023/08/03 02:43:08;;;;;;;5.00;1.50;;;;;;;16.26;100.00;155538.25;5051774;28;20975;-85
2023/08/03 02:45:40;;;;;;;5.53;1.60;;;;;;;16.27;100.00;155540.84;5026774;28;20521;-85
2023/08/03 02:48:07;;;;;;;3.07;1.53;;;;;;;16.22;100.00;155529.16;5041865;28;20869;-85
2023/08/03 02:50:36;;;;;;;2.40;1.43;;;;;;;16.25;100.00;155535.66;5017295;28;20488;-85
2023/08/03 02:53:07;;;;;;;3.30;1.50;;;;;;;16.20;100.00;155523.94;5015219;28;20459;-86
2023/08/03 02:55:34;;;;;;;3.80;1.60;;;;;;;16.18;100.00;155517.44;5010744;28;20974;-86
2023/08/03 02:58:01;;;;;;;3.90;1.60;;;;;;;16.19;100.00;155520.03;5037229;28;20454;-86
2023/08/03 03:00:28;;;;;;;5.00;1.77;;;;;;;16.18;100.00;155517.44;5047217;28;20478;-85
2023/08/03 03:02:55;;;;;;;6.20;2.00;;;;;;;16.17;99.67;155514.88;5024609;28;20469;-85
2023/08/03 03:05:26;;;;;;;3.13;1.73;;;;;;;16.14;100.00;155507.06;5034173;28;20462;-86
2023/08/03 03:07:54;;;;;;;4.30;1.57;;;;;;;16.11;100.00;155500.56;5032099;28;20434;-86
2023/08/03 03:10:21;;;;;;;3.73;1.17;;;;;;;16.06;100.00;155487.56;5039716;28;20521;-86
2023/08/03 03:12:48;;;;;;;5.87;2.27;;;;;;;16.06;100.00;155486.25;5025255;28;20821;-85
2023/08/03 03:15:15;;;;;;;4.13;1.50;;;;;;;16.03;100.00;155479.75;5031982;28;20552;-86
2023/08/03 03:17:42;;;;;;;2.90;1.80;;;;;;;16.05;100.00;155484.94;5015634;28;20580;-85
2023/08/03 03:20:11;;;;;;;3.23;1.60;;;;;;;16.04;100.00;155481.06;5050589;28;20854;-86
2023/08/03 03:22:37;;;;;;;4.77;2.17;;;;;;;16.02;100.00;155475.88;5048610;28;20460;-86
2023/08/03 03:25:06;;;;;;;8.50;1.67;;;;;;;16.03;100.00;155478.44;5060333;28;20487;-86
2023/08/03 03:27:33;;;;;;;3.50;1.70;;;;;;;16.03;99.54;155478.44;5035658;28;20812;-86
2023/08/03 03:29:59;;;;;;;5.90;2.57;;;;;;;16.07;98.58;155490.13;5057638;28;20450;-86
2023/08/03 03:32:27;;;;;;;4.73;2.20;;;;;;;16.06;99.77;155486.25;5021718;28;20546;-86
2023/08/03 03:34:54;;;;;;;5.80;1.70;;;;;;;16.03;98.89;155479.75;5044093;28;20502;-86
2023/08/03 03:37:20;;;;;;;3.53;1.50;;;;;;;15.99;99.64;155468.06;5052993;28;20500;-86
2023/08/03 03:39:48;;;;;;;3.00;1.40;;;;;;;15.98;100.00;155466.75;5034808;28;20485;-84
2023/08/03 03:42:23;;;;;;;2.47;1.57;;;;;;;15.94;99.69;155456.31;5046990;28;20475;-86
2023/08/03 03:44:49;;;;;;;5.70;1.50;;;;;;;15.96;100.00;155460.25;5024101;28;20460;-86
2023/08/03 03:47:16;;;;;;;3.00;1.53;;;;;;;15.93;99.44;155452.44;5033420;28;20448;-86
2023/08/03 03:49:46;;;;;;;4.10;1.43;;;;;;;15.94;100.00;155455.06;5057602;28;20970;-86
2023/08/03 03:52:13;;;;;;;2.50;1.50;;;;;;;15.87;100.00;155436.81;5009757;28;20448;-85
2023/08/03 03:54:40;;;;;;;2.57;1.40;;;;;;;15.84;99.35;155430.31;5027298;28;20513;-85
2023/08/03 03:57:08;;;;;;;3.67;1.30;;;;;;;15.88;98.56;155439.44;5025739;28;20456;-85
2023/08/03 03:59:36;;;;;;;4.07;1.63;;;;;;;15.90;100.00;155444.63;5004570;28;20472;-85
2023/08/03 04:02:03;;;;;;;6.80;1.77;;;;;;;15.81;100.00;155423.81;5053570;28;20800;-85
2023/08/03 04:04:29;;;;;;;3.37;1.47;;;;;;;15.76;100.00;155409.53;5028479;28;20463;-87
2023/08/03 04:06:56;;;;;;;3.00;1.70;;;;;;;15.77;100.00;155413.47;5028620;28;20459;-86
2023/08/03 04:09:23;;;;;;;2.13;1.00;;;;;;;15.77;100.00;155413.47;5029120;28;20464;-86
2023/08/03 04:11:49;;;;;;;2.97;1.40;;;;;;;15.78;99.45;155416.03;5026025;28;20470;-86
2023/08/03 04:14:16;;;;;;;4.20;1.47;;;;;;;15.79;99.52;155417.34;5029272;28;20448;-87
2023/08/03 04:16:44;;;;;;;2.27;1.50;;;;;;;15.75;100.00;155408.22;5026876;28;20533;-86
2023/08/03 04:19:11;;;;;;;2.97;1.40;;;;;;;15.69;100.00;155391.34;5022074;28;20851;-86
2023/08/03 04:21:37;;;;;;;3.60;1.67;;;;;;;15.62;100.00;155374.41;5029166;28;20463;-86
2023/08/03 04:24:04;;;;;;;5.63;1.30;;;;;;;15.66;100.00;155383.53;5029370;28;20859;-86
2023/08/03 04:26:33;;;;;;;3.07;1.50;;;;;;;15.68;100.00;155388.72;5030586;28;21075;-87
2023/08/03 04:28:59;;;;;;;3.23;1.23;;;;;;;15.64;100.00;155379.66;5053341;28;20792;-86
2023/08/03 04:31:29;;;;;;;3.60;1.40;;;;;;;15.65;99.30;155380.91;5030481;28;20457;-85
2023/08/03 04:33:58;;;;;;;2.30;0.80;;;;;;;15.66;99.21;155383.53;5032579;28;20454;-86
2023/08/03 04:36:27;;;;;;;2.80;1.17;;;;;;;15.66;99.29;155383.53;5034955;28;20536;-86
2023/08/03 04:38:54;;;;;;;2.10;1.23;;;;;;;15.73;97.95;155401.72;5014858;28;20466;-86
2023/08/03 04:41:21;;;;;;;2.60;0.70;;;;;;;15.72;98.60;155399.16;5042273;28;20884;-86
2023/08/03 04:43:49;;;;;;;1.80;1.10;;;;;;;15.73;98.40;155403.03;5042592;28;20546;-87
2023/08/03 04:46:19;;;;;;;1.77;0.90;;;;;;;15.73;99.21;155403.03;5044647;28;21049;-87
2023/08/03 04:48:45;;;;;;;3.77;0.80;;;;;;;15.72;99.15;155400.47;5054206;28;20992;-87
2023/08/03 04:51:13;;;;;;;2.63;0.80;;;;;;;15.77;98.55;155413.47;5053993;28;20452;-88
2023/08/03 04:53:40;;;;;;;3.20;1.20;;;;;;;15.81;98.07;155422.53;5024510;28;20545;-87
2023/08/03 04:56:07;;;;;;;2.07;0.97;;;;;;;15.86;99.01;155434.25;5033482;28;20462;-88
2023/08/03 04:58:34;;;;;;;3.60;1.30;;;;;;;15.92;97.04;155449.81;5022261;28;20471;-87
2023/08/03 05:01:01;;;;;;;1.60;0.87;;;;;;;15.99;98.39;155469.31;5029533;28;20564;-87
2023/08/03 05:03:27;;;;;;;8.00;1.60;;;;;;;16.09;98.80;155494.06;5045658;28;20955;-88
2023/08/03 05:05:54;;;;;;;2.60;0.90;;;;;;;16.26;98.46;155539.56;5032097;28;20445;-87
2023/08/03 05:08:30;;;;;;;1.60;0.83;;;;;;;16.57;97.37;155618.97;5027967;28;20842;-88
2023/08/03 05:10:57;;;;;;;2.93;0.70;;;;;;;16.81;97.51;155681.38;5023758;28;20446;-88
2023/08/03 05:13:24;;;;;;;5.10;1.00;;;;;;;16.96;97.44;155720.44;5026902;28;20900;-89
2023/08/03 05:15:50;;;;;;;2.47;1.00;;;;;;;17.08;95.32;155749.06;5041738;28;20612;-89
2023/08/03 05:18:17;;;;;;;3.80;0.77;;;;;;;17.22;95.20;155785.47;5010229;28;20451;-89
2023/08/03 05:20:44;;;;;;;2.57;0.60;;;;;;;17.30;94.13;155806.28;5027663;28;20485;-88
2023/08/03 05:23:12;;;;;;;3.23;0.80;;;;;;;17.31;95.61;155810.22;5011159;28;20454;-87
2023/08/03 05:25:40;;;;;;;2.30;0.70;;;;;;;17.17;92.94;155772.47;5045063;28;20467;-87
2023/08/03 05:28:07;;;;;;;1.43;0.70;;;;;;;17.08;94.28;155749.06;5032122;28;20451;-87
2023/08/03 05:30:34;;;;;;;2.50;0.63;;;;;;;16.94;96.33;155715.19;5043181;28;21048;-88
2023/08/03 05:33:01;;;;;;;1.67;0.70;;;;;;;16.78;96.35;155673.59;5044661;28;20497;-87
2023/08/03 05:35:28;;;;;;;1.83;0.90;;;;;;;16.67;96.74;155644.97;5045290;28;21024;-87
2023/08/03 05:37:55;;;;;;;2.50;0.90;;;;;;;16.66;95.08;155641.03;5044933;28;20455;-87
2023/08/03 05:40:21;;;;;;;3.63;0.80;;;;;;;16.61;95.78;155628.03;5044192;28;20984;-87
2023/08/03 05:42:49;;;;;;;1.60;0.70;;;;;;;16.56;96.42;155616.34;5024886;28;21099;-86
2023/08/03 05:45:35;;;;;;;2.00;0.93;;;;;;;16.57;96.09;155617.66;5045175;28;20450;-86
2023/08/03 05:48:02;;;;;;;1.50;0.60;;;;;;;16.54;96.17;155609.84;5044261;28;20458;-85
2023/08/03 05:50:28;;;;;;;3.03;0.87;;;;;;;16.49;97.01;155598.09;5044247;28;20456;-85
2023/08/03 05:52:55;;;;;;;2.13;1.00;;;;;;;16.53;96.63;155608.53;5045100;28;20976;-85
2023/08/03 05:55:22;;;;;;;1.80;1.03;;;;;;;16.55;97.77;155613.72;5042809;28;20459;-85
2023/08/03 05:57:50;;;;;;;2.20;0.90;;;;;;;16.59;96.24;155622.84;5043751;28;20451;-85
2023/08/03 06:00:20;;;;;;;1.30;0.70;;;;;;;16.58;98.73;155621.53;5027985;28;20493;-85
2023/08/03 06:02:47;;;;;;;1.63;0.90;;;;;;;16.61;98.49;155629.34;5044664;28;20449;-85
2023/08/03 06:05:41;;;;;;;5.53;0.90;;;;;;;16.75;98.56;155665.78;5043561;28;20469;-86
2023/08/03 06:08:12;;;;;;;3.13;0.83;;;;;;;16.95;98.34;155717.81;5029371;28;20545;-85
2023/08/03 06:10:38;;;;;;;2.40;0.77;;;;;;;17.29;98.22;155803.72;5059610;28;20451;-85
2023/08/03 06:13:10;;;;;;;1.70;0.67;;;;;;;17.61;95.42;155888.34;5047210;28;20475;-87
2023/08/03 06:15:36;;;;;;;2.00;1.10;;;;;;;17.78;94.98;155931.31;5032606;28;20579;-88
2023/08/03 06:18:04;;;;;;;3.03;1.00;;;;;;;17.86;91.23;155952.16;5066337;28;20479;-87
2023/08/03 06:20:31;;;;;;;2.13;1.10;;;;;;;17.87;92.71;155954.72;5049597;28;21008;-86
2023/08/03 06:22:58;;;;;;;3.33;1.53;;;;;;;17.89;92.50;155958.66;5051305;28;20458;-87
2023/08/03 06:25:26;;;;;;;4.13;1.00;;;;;;;18.02;91.70;155993.81;5049130;28;20950;-87
2023/08/03 06:27:52;;;;;;;3.60;0.90;;;;;;;18.32;88.51;156069.38;5032418;28;20458;-89
2023/08/03 06:30:20;;;;;;;3.27;1.00;;;;;;;18.38;89.12;156084.97;5035234;28;20451;-89
2023/08/03 06:32:47;;;;;;;2.10;1.03;;;;;;;18.56;89.80;156133.19;5039197;28;20486;-89
2023/08/03 06:35:24;;;;;;;3.33;1.03;;;;;;;18.80;85.45;156195.75;5030147;28;20462;-85
2023/08/03 06:37:53;;;;;;;2.10;0.67;;;;;;;19.03;84.26;156254.41;5045621;28;20949;-85
2023/08/03 06:40:21;;;;;;;1.87;0.80;;;;;;;19.29;83.78;156322.16;5046543;28;20599;-86
2023/08/03 06:42:48;;;;;;;2.67;0.80;;;;;;;19.51;81.30;156376.97;5063048;28;20455;-85
2023/08/03 06:45:15;;;;;;;3.10;0.87;;;;;;;19.69;79.70;156423.88;5047733;28;20462;-85
2023/08/03 06:47:43;;;;;;;4.07;1.20;;;;;;;19.78;79.09;156448.63;5060512;28;20462;-85
2023/08/03 06:50:15;;;;;;;2.80;1.00;;;;;;;19.89;79.19;156477.34;5059867;28;20462;-85
2023/08/03 06:52:41;;;;;;;2.30;0.80;;;;;;;20.07;74.10;156522.94;5029330;28;20454;-85
2023/08/03 06:55:09;;;;;;;1.60;0.70;;;;;;;20.26;76.62;156572.56;5046596;28;20554;-84
2023/08/03 06:57:35;;;;;;;2.87;0.93;;;;;;;20.33;72.10;156590.81;5062499;28;20560;-84
2023/08/03 07:00:02;;;;;;;2.30;0.80;;;;;;;20.56;72.37;156650.84;5047013;28;20455;-84
2023/08/03 07:02:31;;;;;;;2.40;0.90;;;;;;;20.71;73.31;156687.34;5048590;28;20471;-84
2023/08/03 07:04:59;;;;;;;2.70;0.87;;;;;;;20.80;69.61;156712.16;5050875;28;20538;-84
2023/08/03 07:07:27;;;;;;;4.20;0.90;;;;;;;21.03;70.79;156770.88;5048956;28;20443;-84
2023/08/03 07:09:54;;;;;;;2.40;0.80;;;;;;;21.08;70.99;156785.28;5036910;28;20456;-80
2023/08/03 07:12:21;;;;;;;3.50;1.13;;;;;;;21.19;70.71;156814.00;5031878;28;20447;-80
2023/08/03 07:14:56;;;;;;;2.97;1.07;;;;;;;21.17;68.17;156807.47;5047240;28;21067;-81
2023/08/03 07:17:23;;;;;;;2.37;1.03;;;;;;;21.16;66.00;156806.16;5061370;28;20551;-77
2023/08/03 07:19:51;;;;;;;1.50;0.70;;;;;;;21.10;68.63;156789.22;5046844;28;20451;-77
2023/08/03 07:22:19;;;;;;;1.10;0.50;;;;;;;21.09;69.78;156786.59;5047475;28;20578;-77
2023/08/03 07:24:46;;;;;;;2.17;0.70;;;;;;;21.07;69.05;156781.38;5062294;28;20497;-81
2023/08/03 07:27:13;;;;;;;3.53;0.83;;;;;;;21.19;68.06;156812.69;5044725;28;20834;-77
2023/08/03 07:29:39;;;;;;;5.40;0.87;;;;;;;21.12;67.67;156794.44;5011782;28;20462;-77
2023/08/03 07:32:07;;;;;;;2.33;0.77;;;;;;;21.20;70.96;156815.31;5026847;28;20475;-77
2023/08/03 07:34:33;;;;;;;2.50;0.87;;;;;;;21.36;66.02;156857.09;5029746;28;20471;-77
2023/08/03 07:37:01;;;;;;;1.73;0.60;;;;;;;21.61;67.68;156921.00;5047417;28;20457;-77
2023/08/03 07:39:29;;;;;;;2.27;0.60;;;;;;;21.76;68.19;156961.47;5046751;28;20455;-77
2023/08/03 07:41:56;;;;;;;1.67;0.70;;;;;;;21.97;65.03;157013.78;5046027;28;21035;-78
2023/08/03 07:44:23;;;;;;;5.23;0.80;;;;;;;22.08;65.83;157042.53;5044121;28;20458;-78
2023/08/03 07:46:49;;;;;;;2.10;0.67;;;;;;;22.19;64.33;157071.22;5045638;28;20996;-78
2023/08/03 07:49:16;;;;;;;2.37;0.70;;;;;;;22.27;64.20;157093.44;5046358;28;20458;-78
2023/08/03 07:51:43;;;;;;;1.83;0.70;;;;;;;22.44;64.41;157137.84;5047545;28;20557;-78
2023/08/03 07:54:09;;;;;;;1.60;0.80;;;;;;;22.59;64.37;157175.72;5044703;28;20459;-78
2023/08/03 07:56:37;;;;;;;4.17;1.03;;;;;;;22.71;64.57;157207.16;5046059;28;20497;-78
2023/08/03 07:59:04;;;;;;;1.83;0.77;;;;;;;22.74;64.71;157214.94;5045237;28;20852;-78
2023/08/03 08:01:31;;;;;;;1.30;0.57;;;;;;;22.91;65.57;157259.38;5046091;28;20478;-78
2023/08/03 08:03:57;;;;;;;1.00;0.63;;;;;;;23.08;66.80;157301.22;5047349;28;20455;-79
2023/08/03 08:06:26;;;;;;;1.60;0.70;;;;;;;23.25;63.97;157345.63;5046951;28;20451;-78
2023/08/03 08:08:53;;;;;;;2.23;0.73;;;;;;;23.25;61.57;157345.63;5045381;28;20462;-78
2023/08/03 08:11:20;;;;;;;1.40;0.50;;;;;;;23.28;65.73;157353.47;5062549;28;20447;-79
2023/08/03 08:13:48;;;;;;;1.93;0.97;;;;;;;23.29;62.04;157356.09;5044969;28;20451;-78
2023/08/03 08:16:16;;;;;;;1.70;0.80;;;;;;;23.49;63.95;157408.41;5046727;28;20486;-78
2023/08/03 08:18:42;;;;;;;2.07;0.70;;;;;;;23.66;57.36;157452.88;5045347;28;20455;-79
2023/08/03 08:21:10;;;;;;;1.67;0.70;;;;;;;23.62;58.81;157442.38;5028818;28;20466;-78
2023/08/03 08:23:37;;;;;;;3.93;0.70;;;;;;;23.73;60.21;157469.84;5012888;28;21642;-79
2023/08/03 08:26:10;;;;;;;1.20;0.60;;;;;;;23.73;61.38;157471.16;5047076;28;20461;-78
2023/08/03 08:28:36;;;;;;;2.27;0.70;;;;;;;23.46;60.10;157400.56;5046074;28;20451;-79
2023/08/03 08:31:04;;;;;;;2.03;0.80;;;;;;;23.23;61.10;157340.41;5048972;28;20448;-78
2023/08/03 08:33:31;;;;;;;3.10;0.60;;;;;;;23.10;61.82;157307.72;5044499;28;20489;-79
2023/08/03 08:35:57;;;;;;;1.80;0.70;;;;;;;22.95;62.54;157268.56;5046989;28;20497;-79
2023/08/03 08:38:24;;;;;;;1.60;0.53;;;;;;;22.86;64.75;157245.00;5045386;28;20450;-79
2023/08/03 08:40:51;;;;;;;1.97;0.70;;;;;;;22.69;68.02;157201.88;5064954;28;20543;-79
2023/08/03 08:43:18;;;;;;;2.30;0.77;;;;;;;22.59;68.06;157175.72;5046269;28;20451;-79
2023/08/03 08:45:45;;;;;;;2.07;0.90;;;;;;;22.50;65.77;157150.91;5046733;28;20462;-79
2023/08/03 08:48:13;;;;;;;1.27;0.50;;;;;;;22.37;64.05;157118.28;5044438;28;20493;-79
2023/08/03 08:50:41;;;;;;;2.00;0.93;;;;;;;22.28;69.00;157094.75;5060541;28;20463;-79
2023/08/03 08:53:08;;;;;;;1.40;0.50;;;;;;;22.13;63.05;157055.56;5045328;28;20798;-79
2023/08/03 08:55:34;;;;;;;2.60;0.73;;;;;;;22.06;68.39;157037.25;5048650;28;20451;-79
2023/08/03 08:58:01;;;;;;;1.90;0.70;;;;;;;21.98;67.79;157017.69;5062099;28;20893;-79
2023/08/03 09:00:28;;;;;;;2.33;0.60;;;;;;;21.93;68.68;157004.63;5062575;28;20459;-79
2023/08/03 09:02:55;;;;;;;1.80;0.70;;;;;;;21.94;66.31;157005.94;5047764;28;20486;-79
2023/08/03 09:05:25;;;;;;;1.10;0.50;;;;;;;21.95;70.43;157009.84;5046078;28;20459;-79
2023/08/03 09:08:02;;;;;;;2.17;0.80;;;;;;;21.92;68.14;157002.03;5059481;28;20439;-78
2023/08/03 09:10:29;;;;;;;1.20;0.70;;;;;;;21.90;65.90;156996.78;5024370;28;20462;-79
2023/08/03 09:12:56;;;;;;;1.67;1.00;;;;;;;21.78;65.21;156966.75;5047036;28;20435;-79
2023/08/03 09:15:37;;;;;;;1.50;0.73;;;;;;;21.73;63.65;156953.69;5035239;28;20455;-79
2023/08/03 09:18:04;;;;;;;1.23;0.50;;;;;;;21.78;69.27;156965.41;5026825;28;20492;-78
2023/08/03 09:20:33;;;;;;;1.83;0.50;;;;;;;21.63;65.70;156927.53;5043997;28;20502;-79
2023/08/03 09:23:00;;;;;;;4.30;0.50;;;;;;;21.68;68.26;156940.59;5060336;28;20467;-79
2023/08/03 09:25:27;;;;;;;1.60;0.70;;;;;;;21.67;68.95;156938.00;5025809;28;20451;-78
2023/08/03 09:27:57;;;;;;;1.60;0.80;;;;;;;21.67;72.24;156936.69;5043942;28;20478;-79
2023/08/03 09:30:25;;;;;;;1.00;0.50;;;;;;;21.60;66.81;156918.44;5059335;28;20462;-78
2023/08/03 09:32:52;;;;;;;3.10;0.70;;;;;;;21.59;67.78;156915.81;5045190;28;20479;-78
2023/08/03 09:35:20;;;;;;;1.20;0.57;;;;;;;21.59;71.70;156915.81;5046258;28;20458;-78
2023/08/03 09:37:49;;;;;;;1.20;0.63;;;;;;;21.55;72.04;156905.38;5043897;28;20455;-79
2023/08/03 09:40:17;;;;;;;3.10;0.93;;;;;;;21.54;70.51;156902.75;5042311;28;20458;-78
2023/08/03 09:42:45;;;;;;;1.30;0.47;;;;;;;21.48;69.01;156888.38;5059524;28;20556;-78
2023/08/03 09:45:12;;;;;;;3.50;0.70;;;;;;;21.52;66.82;156897.53;5042929;28;20454;-78
2023/08/03 09:47:39;;;;;;;1.40;0.80;;;;;;;21.56;67.04;156909.28;5044202;28;20457;-78
2023/08/03 09:50:06;;;;;;;1.30;0.50;;;;;;;21.57;66.90;156911.91;5042461;28;20454;-78
2023/08/03 09:52:39;;;;;;;1.20;0.50;;;;;;;21.55;70.03;156906.66;5045879;28;20936;-78
2023/08/03 09:55:13;;;;;;;1.83;0.60;;;;;;;21.48;71.60;156888.38;5058342;28;20455;-79
2023/08/03 09:57:41;;;;;;;2.60;1.33;;;;;;;21.48;71.62;156888.38;5025979;28;20454;-78
2023/08/03 10:00:10;;;;;;;1.87;0.60;;;;;;;21.46;68.70;156883.19;5033551;28;20451;-78
2023/08/03 10:02:44;;;;;;;2.50;0.53;;;;;;;21.54;70.34;156904.06;5042343;28;20536;-79
2023/08/03 10:05:15;;;;;;;1.50;0.50;;;;;;;21.56;65.06;156909.28;5044470;28;20494;-78
2023/08/03 10:07:48;;;;;;;2.37;0.70;;;;;;;21.69;70.94;156943.22;5028663;28;20459;-78
2023/08/03 10:10:16;;;;;;;1.57;0.60;;;;;;;21.70;71.73;156945.84;5045881;28;20502;-78
2023/08/03 10:12:45;;;;;;;2.30;0.77;;;;;;;21.67;70.14;156936.69;5045617;28;20477;-78
2023/08/03 10:15:13;;;;;;;1.73;0.60;;;;;;;21.62;71.37;156924.97;5042561;28;20824;-78
2023/08/03 10:17:40;;;;;;;1.53;0.50;;;;;;;21.51;67.51;156896.22;5060502;28;20826;-78
2023/08/03 10:20:09;;;;;;;1.07;0.30;;;;;;;21.51;70.66;156896.22;5045252;28;20473;-78
2023/08/03 10:22:36;;;;;;;1.17;0.40;;;;;;;21.50;72.04;156892.34;5059734;28;20550;-78
2023/08/03 10:25:17;;;;;;;1.90;0.53;;;;;;;21.50;74.74;156893.59;5057387;28;20459;-78
2023/08/03 10:28:14;;;;;;;2.97;0.50;;;;;;;21.53;71.35;156901.44;5034939;28;20797;-78
2023/08/03 10:31:03;;;;;;;2.30;0.60;;;;;;;21.56;70.57;156907.97;5043731;28;20461;-78
2023/08/03 10:34:03;;;;;;;2.40;1.13;;;;;;;21.61;71.59;156921.00;5043034;28;20484;-78
2023/08/03 10:36:43;;;;;;;1.90;0.50;;;;;;;21.60;77.18;156919.75;5045924;28;20477;-78
2023/08/03 10:39:12;;;;;;;2.10;0.50;;;;;;;21.62;73.75;156923.63;5043156;28;20462;-86
2023/08/03 10:41:41;;;;;;;1.40;0.77;;;;;;;21.60;71.55;156919.75;5044540;28;20471;-87
2023/08/03 10:44:32;;;;;;;3.57;0.70;;;;;;;21.53;67.53;156900.13;5043367;28;20478;-86
2023/08/03 10:47:00;;;;;;;1.47;0.50;;;;;;;21.51;70.15;156894.91;5029342;28;20811;-86
2023/08/03 10:49:53;;;;;;;1.10;0.60;;;;;;;21.41;69.46;156870.13;5034791;28;20455;-86
2023/08/03 10:52:21;;;;;;;1.07;0.43;;;;;;;21.33;67.46;156849.25;5024867;28;20513;-86
2023/08/03 10:54:49;;;;;;;1.47;0.67;;;;;;;21.38;70.67;156862.28;5053278;28;20889;-86
2023/08/03 10:57:19;;;;;;;1.07;0.40;;;;;;;21.37;71.00;156858.34;5041792;28;20458;-86
2023/08/03 10:59:46;;;;;;;2.03;0.87;;;;;;;21.50;68.91;156893.59;5042877;28;20534;-87
2023/08/03 11:02:15;;;;;;;3.13;0.70;;;;;;;21.53;67.34;156901.44;5048055;28;20462;-86
2023/08/03 11:04:42;;;;;;;2.80;0.50;;;;;;;21.68;70.45;156940.59;5047138;28;20465;-87
2023/08/03 11:07:10;;;;;;;1.10;0.60;;;;;;;21.76;69.86;156961.47;5048875;28;20539;-87
2023/08/03 11:09:37;;;;;;;1.20;0.50;;;;;;;21.80;67.97;156971.94;5049212;28;20458;-87
2023/08/03 11:12:04;;;;;;;1.20;0.43;;;;;;;21.91;69.05;156998.09;5034536;28;20443;-87
2023/08/03 11:14:35;;;;;;;3.93;0.60;;;;;;;21.94;67.10;157007.25;5045596;28;20458;-87
2023/08/03 11:17:02;;;;;;;3.10;0.57;;;;;;;22.18;68.06;157068.63;5047377;28;20853;-78
2023/08/03 11:19:32;;;;;;;2.87;0.60;;;;;;;22.30;69.47;157099.94;5062345;28;20965;-78
2023/08/03 11:22:01;;;;;;;1.20;0.50;;;;;;;22.44;68.08;157136.53;5048207;28;20569;-78
2023/08/03 11:24:31;;;;;;;2.20;0.60;;;;;;;22.48;63.28;157146.97;5045495;28;20463;-78
2023/08/03 11:26:58;;;;;;;1.80;0.70;;;;;;;22.48;66.85;157146.97;5046991;28;20450;-77